Perry, Maine
Current Conditions -  °F | °C
As of 12:00 PM on Friday 24 Oct 2014 (Local Time) from CYSJ Reporting Station
Light Rain Light Rain  
Wind Chill: 52°   Ceiling: 2000
Heat Index: 52°   Visibility: 6mi
Dew Point: 50°   Wind: 18mph
Humidity: 94%   Direction: 20°NNE
Pressure: 29.57"   Gusts: NA
Location:  44.98°N, 67.08°W
Report Text: CYSJ 241600Z 02016KT 6SM -RA SCT010 OVC020 11/10 A2957 RMK SF3SC5 SLP016
Loading
Personal Weather Stations






























Interactive Weather Map
Tropical Storm Tracking
New forecast layout! Learn more

10-Day Weather Forecast

Advertisements
Track Severe Weather on mobile